Terminal Aerodrome Forecast
Issued by NWS Missoula, MT

Home | Current Version | Previous Version | Text Only | Print | Product List | Glossary On
Versions: 1 2 3 4 5 6 7 8 9 10 11 12 13 14 15 16 17 18 19 20 21 22 23
000
FTUS45 KMSO 262320
TAFBTM
TAF
KBTM 262320Z 2700/2724 19014KT P6SM VCSH OVC070
     FM270500 18010KT 6SM -SN OVC050
     FM271200 VRB04KT P6SM OVC070=

USA.gov is the U.S. government's official web portal to all federal, state and local government web resources and services.